createdAt,value
2023-03-29T00:00:51.169Z,6.83
2023-03-29T00:02:32.851Z,7.18
2023-03-29T00:04:06.591Z,6.97
2023-03-29T00:05:41.381Z,7.75
2023-03-29T00:07:14.522Z,7.05
2023-03-29T00:08:46.569Z,6.53
2023-03-29T00:10:19.786Z,6.50
2023-03-29T00:11:52.905Z,6.50
2023-03-29T00:13:26.330Z,6.93
2023-03-29T00:14:59.449Z,5.85
2023-03-29T00:16:32.538Z,5.93
2023-03-29T00:18:07.246Z,6.07
2023-03-29T00:19:40.381Z,6.00
2023-03-29T00:21:13.475Z,6.03
2023-03-29T00:22:47.611Z,5.70
2023-03-29T00:24:21.151Z,6.03
2023-03-29T00:25:55.361Z,5.75
2023-03-29T00:27:29.236Z,5.93
2023-03-29T00:29:02.315Z,6.43
2023-03-29T00:30:35.580Z,5.38
2023-03-29T00:32:08.821Z,5.70
2023-03-29T00:33:42.532Z,5.45
2023-03-29T00:35:16.573Z,5.63
2023-03-29T00:36:50.970Z,6.20
2023-03-29T00:38:24.111Z,5.77
2023-03-29T00:39:57.772Z,5.70
2023-03-29T00:41:30.935Z,5.88
2023-03-29T00:43:04.010Z,5.88
2023-03-29T00:45:00.755Z,6.18
2023-03-29T00:46:34.934Z,6.43
2023-03-29T00:48:11.223Z,5.40
2023-03-29T00:49:45.589Z,5.57
2023-03-29T00:51:20.557Z,5.28
2023-03-29T00:53:00.884Z,5.88
2023-03-29T00:54:34.539Z,5.65
2023-03-29T00:56:11.910Z,5.50
2023-03-29T00:57:49.262Z,5.55
2023-03-29T00:59:25.715Z,5.70
2023-03-29T01:01:02.710Z,5.55
2023-03-29T01:02:40.008Z,5.68
2023-03-29T01:04:19.360Z,5.72
2023-03-29T01:06:00.103Z,5.85
2023-03-29T01:07:38.101Z,5.68
2023-03-29T01:09:15.242Z,5.53
2023-03-29T01:10:52.779Z,5.55
2023-03-29T01:12:30.433Z,5.47
2023-03-29T01:14:05.878Z,5.90
2023-03-29T01:15:43.111Z,5.50
2023-03-29T01:17:16.223Z,5.20
2023-03-29T01:18:49.348Z,4.97
2023-03-29T01:20:27.969Z,5.27
2023-03-29T01:22:13.553Z,5.70
2023-03-29T01:24:06.956Z,5.33
2023-03-29T01:25:48.982Z,5.20
2023-03-29T01:27:36.242Z,5.22
2023-03-29T01:29:12.991Z,5.07
2023-03-29T01:30:49.336Z,5.25
2023-03-29T01:32:27.211Z,4.88
2023-03-29T01:34:06.909Z,6.07
2023-03-29T01:35:45.660Z,5.45
2023-03-29T01:37:24.820Z,5.40
2023-03-29T01:38:59.192Z,5.05
2023-03-29T01:40:34.243Z,5.03
2023-03-29T01:42:22.648Z,4.93
2023-03-29T01:44:03.159Z,4.93
2023-03-29T01:45:39.392Z,5.00
2023-03-29T01:47:18.720Z,5.70
2023-03-29T01:48:55.937Z,5.32
2023-03-29T01:50:39.086Z,5.68
2023-03-29T01:52:16.994Z,4.95
2023-03-29T01:53:57.548Z,5.57
2023-03-29T01:55:35.982Z,5.10
2023-03-29T01:57:11.862Z,5.07
2023-03-29T01:58:48.386Z,5.50
2023-03-29T02:00:27.612Z,5.40
2023-03-29T02:02:03.910Z,5.57
2023-03-29T02:03:42.513Z,5.25
2023-03-29T02:05:17.637Z,5.13
2023-03-29T02:06:54.175Z,5.95
2023-03-29T02:08:28.544Z,5.13
2023-03-29T02:10:04.716Z,5.00
2023-03-29T02:11:37.996Z,5.32
2023-03-29T02:13:11.395Z,5.00
2023-03-29T02:14:43.532Z,4.78
2023-03-29T02:16:18.326Z,5.05
2023-03-29T02:17:51.933Z,5.00
2023-03-29T02:19:27.982Z,5.15
2023-03-29T02:21:01.915Z,4.75
2023-03-29T02:22:42.489Z,4.60
2023-03-29T02:24:18.640Z,4.72
2023-03-29T02:25:53.600Z,5.03
2023-03-29T02:27:29.177Z,4.75
2023-03-29T02:29:04.160Z,5.32
2023-03-29T02:30:44.677Z,5.03
2023-03-29T02:32:22.875Z,5.03
2023-03-29T02:34:00.365Z,5.40
2023-03-29T02:35:36.511Z,4.78
2023-03-29T02:37:15.693Z,5.10
2023-03-29T02:38:48.891Z,5.10
2023-03-29T02:40:23.512Z,5.35
2023-03-29T02:41:57.282Z,5.28
2023-03-29T02:43:31.978Z,5.55
2023-03-29T02:45:06.200Z,6.32
2023-03-29T02:46:39.723Z,5.43
2023-03-29T02:48:18.315Z,5.88
2023-03-29T02:49:51.997Z,5.72
2023-03-29T02:51:27.911Z,5.50
2023-03-29T02:53:04.648Z,5.30
2023-03-29T02:54:43.441Z,5.28
2023-03-29T02:56:16.699Z,5.75
2023-03-29T02:57:49.794Z,5.73
2023-03-29T02:59:24.249Z,5.60
2023-03-29T03:00:59.658Z,5.70
2023-03-29T03:02:33.529Z,6.07
2023-03-29T03:04:08.084Z,5.25
2023-03-29T03:05:41.202Z,5.90
2023-03-29T03:07:14.323Z,5.72
2023-03-29T03:08:47.436Z,5.40
2023-03-29T03:10:20.684Z,5.30
2023-03-29T03:11:53.799Z,6.10
2023-03-29T03:13:27.049Z,6.10
2023-03-29T03:14:59.222Z,5.80
2023-03-29T03:16:32.496Z,6.28
2023-03-29T03:18:04.983Z,6.10
2023-03-29T03:19:40.648Z,5.67
2023-03-29T03:21:13.819Z,5.80
2023-03-29T03:22:48.928Z,5.40
2023-03-29T03:24:22.160Z,6.10
2023-03-29T03:25:55.789Z,5.80
2023-03-29T03:27:29.068Z,5.73
2023-03-29T03:29:02.389Z,5.20
2023-03-29T03:30:58.947Z,5.85
2023-03-29T03:33:10.209Z,5.10
2023-03-29T03:35:06.012Z,5.68
2023-03-29T03:36:39.225Z,6.30
2023-03-29T03:38:12.292Z,5.95
2023-03-29T03:39:46.169Z,6.38
2023-03-29T03:41:19.747Z,5.80
2023-03-29T03:42:52.910Z,5.97
2023-03-29T03:44:25.249Z,6.00
2023-03-29T03:46:15.260Z,5.68
2023-03-29T03:47:49.385Z,5.78
2023-03-29T03:49:32.320Z,5.93
2023-03-29T03:51:07.304Z,6.03
2023-03-29T03:52:41.633Z,6.17
2023-03-29T03:54:15.714Z,5.80
2023-03-29T03:56:09.717Z,6.05
2023-03-29T03:57:58.175Z,5.93
2023-03-29T03:59:31.648Z,6.53
2023-03-29T04:01:15.133Z,6.67
2023-03-29T04:02:57.522Z,6.47
2023-03-29T04:04:31.433Z,6.17
2023-03-29T04:06:19.409Z,7.13
2023-03-29T04:08:22.492Z,6.70
2023-03-29T04:10:15.781Z,6.22
2023-03-29T04:12:05.706Z,6.03
2023-03-29T04:13:39.057Z,6.25
2023-03-29T04:15:31.447Z,6.10
2023-03-29T04:17:12.205Z,6.20
2023-03-29T04:18:56.038Z,7.10
2023-03-29T04:20:29.715Z,6.50
2023-03-29T04:22:05.465Z,6.82
2023-03-29T04:23:38.682Z,6.13
2023-03-29T04:25:12.260Z,6.60
2023-03-29T04:26:48.472Z,6.83
2023-03-29T04:28:27.678Z,6.63
2023-03-29T04:30:21.033Z,6.17
2023-03-29T04:32:09.923Z,6.75
2023-03-29T04:33:51.584Z,6.72
2023-03-29T04:35:24.995Z,6.57
2023-03-29T04:36:58.867Z,7.28
2023-03-29T04:38:36.121Z,6.70
2023-03-29T04:40:14.225Z,6.57
2023-03-29T04:42:05.682Z,6.80
2023-03-29T04:43:41.401Z,6.80
2023-03-29T04:45:27.279Z,7.20
2023-03-29T04:47:30.124Z,7.43
2023-03-29T04:49:08.554Z,7.50
2023-03-29T04:50:47.472Z,6.97
2023-03-29T04:52:24.513Z,7.03
2023-03-29T04:53:59.786Z,6.90
2023-03-29T04:55:33.397Z,7.37
2023-03-29T04:57:08.731Z,7.30
2023-03-29T04:58:42.233Z,6.60
2023-03-29T05:00:16.942Z,6.70
2023-03-29T05:02:16.290Z,7.27
2023-03-29T05:03:53.366Z,6.70
2023-03-29T05:05:32.905Z,7.10
2023-03-29T05:07:08.241Z,6.80
2023-03-29T05:08:41.871Z,6.87
2023-03-29T05:10:32.667Z,7.00
2023-03-29T05:12:06.508Z,6.93
2023-03-29T05:13:51.986Z,7.15
2023-03-29T05:15:25.410Z,7.27
2023-03-29T05:16:58.716Z,7.20
2023-03-29T05:18:32.481Z,7.30
2023-03-29T05:20:09.474Z,7.27
2023-03-29T05:21:45.101Z,6.77
2023-03-29T05:23:21.328Z,7.37
2023-03-29T05:25:13.641Z,6.97
2023-03-29T05:26:51.765Z,6.10
2023-03-29T05:28:25.081Z,6.25
2023-03-29T05:29:58.196Z,5.87
2023-03-29T05:31:37.811Z,5.83
2023-03-29T05:33:11.452Z,5.60
2023-03-29T05:34:45.108Z,6.00
2023-03-29T05:36:20.148Z,5.80
2023-03-29T05:37:56.282Z,5.77
2023-03-29T05:39:29.468Z,6.00
2023-03-29T05:41:03.330Z,6.13
2023-03-29T05:43:13.285Z,6.47
2023-03-29T05:44:46.777Z,5.63
2023-03-29T05:46:25.320Z,6.00
2023-03-29T05:48:00.580Z,5.83
2023-03-29T05:49:33.804Z,5.97
2023-03-29T05:51:14.994Z,6.30
2023-03-29T05:52:48.463Z,5.63
2023-03-29T05:54:21.744Z,5.43
2023-03-29T05:55:55.173Z,5.47
2023-03-29T05:57:30.628Z,5.00
2023-03-29T05:59:05.503Z,5.80
2023-03-29T06:00:39.326Z,5.10
2023-03-29T06:02:29.577Z,5.50
2023-03-29T06:04:03.825Z,5.77
2023-03-29T06:05:50.668Z,4.70
2023-03-29T06:07:24.475Z,5.70
2023-03-29T06:09:26.931Z,5.90
2023-03-29T06:11:09.237Z,5.60
2023-03-29T06:13:17.452Z,5.70
2023-03-29T06:14:52.207Z,5.70
2023-03-29T06:16:32.840Z,5.40
2023-03-29T06:18:06.277Z,5.77
2023-03-29T06:19:41.226Z,5.30
2023-03-29T06:21:14.452Z,5.50
2023-03-29T06:22:48.347Z,4.97
2023-03-29T06:24:21.535Z,5.20
2023-03-29T06:26:01.088Z,5.30
2023-03-29T06:27:34.602Z,5.43
2023-03-29T06:29:08.477Z,5.53
2023-03-29T06:30:43.719Z,5.20
2023-03-29T06:32:17.135Z,5.20
2023-03-29T06:33:57.682Z,4.80
2023-03-29T06:35:59.784Z,5.10
2023-03-29T06:37:34.937Z,5.10
2023-03-29T06:39:22.759Z,4.67
2023-03-29T06:41:21.745Z,4.80
2023-03-29T06:43:15.499Z,4.90
2023-03-29T06:45:12.364Z,4.97
2023-03-29T06:46:47.115Z,4.80
2023-03-29T06:48:21.305Z,5.13
2023-03-29T06:49:54.510Z,5.40
2023-03-29T06:51:38.251Z,5.57
2023-03-29T06:53:11.586Z,5.57
2023-03-29T06:54:46.479Z,5.20
2023-03-29T06:56:19.531Z,4.90
2023-03-29T06:58:02.270Z,5.50
2023-03-29T06:59:35.942Z,5.07
2023-03-29T07:01:45.088Z,5.53
2023-03-29T07:03:35.300Z,5.03
2023-03-29T07:05:11.910Z,5.10
2023-03-29T07:07:01.196Z,5.17
2023-03-29T07:08:37.386Z,4.70
2023-03-29T07:10:15.070Z,5.30
2023-03-29T07:12:24.203Z,5.13
2023-03-29T07:13:59.243Z,5.43
2023-03-29T07:15:34.066Z,4.40
2023-03-29T07:17:18.544Z,3.90
2023-03-29T07:18:53.631Z,4.00
2023-03-29T07:20:43.118Z,3.40
2023-03-29T07:22:16.412Z,3.30
2023-03-29T07:23:55.045Z,3.13
2023-03-29T07:25:30.003Z,3.50
2023-03-29T07:27:04.903Z,3.37
2023-03-29T07:28:40.367Z,3.70
2023-03-29T07:30:16.523Z,3.40
2023-03-29T07:31:50.517Z,3.43
2023-03-29T07:33:52.568Z,3.67
2023-03-29T07:35:28.993Z,4.13
2023-03-29T07:37:02.072Z,3.87
2023-03-29T07:38:36.762Z,3.80
2023-03-29T07:40:19.914Z,4.13
2023-03-29T07:42:04.978Z,3.70
2023-03-29T07:43:38.276Z,4.27
2023-03-29T07:45:13.636Z,3.90
2023-03-29T07:47:00.046Z,3.50
2023-03-29T07:48:33.752Z,4.13
2023-03-29T07:50:11.743Z,3.97
2023-03-29T07:51:46.978Z,3.93
2023-03-29T07:53:21.066Z,4.10
2023-03-29T07:54:54.941Z,4.40
2023-03-29T07:56:47.691Z,4.20
2023-03-29T07:58:43.593Z,4.00
2023-03-29T08:00:20.075Z,5.07
2023-03-29T08:02:10.466Z,4.10
2023-03-29T08:03:45.973Z,4.13
2023-03-29T08:05:29.188Z,4.63
2023-03-29T08:07:13.645Z,4.50
2023-03-29T08:09:22.387Z,4.23
2023-03-29T08:10:56.333Z,4.33
2023-03-29T08:12:53.396Z,4.37
2023-03-29T08:14:33.130Z,4.20
2023-03-29T08:16:19.570Z,4.27
2023-03-29T08:17:59.283Z,4.13
2023-03-29T08:19:32.778Z,4.47
2023-03-29T08:21:10.235Z,4.67
2023-03-29T08:22:45.288Z,4.50
2023-03-29T08:24:27.557Z,4.57
2023-03-29T08:26:08.678Z,4.90
2023-03-29T08:27:42.497Z,4.97
2023-03-29T08:29:17.484Z,5.03
2023-03-29T08:30:50.950Z,5.07
2023-03-29T08:32:24.090Z,5.43
2023-03-29T08:33:57.287Z,5.40
2023-03-29T08:35:55.224Z,4.67
2023-03-29T08:37:33.208Z,4.63
2023-03-29T08:39:08.079Z,5.23
2023-03-29T08:40:42.704Z,4.87
2023-03-29T08:42:36.788Z,5.37
2023-03-29T08:44:21.553Z,5.10
2023-03-29T08:46:11.932Z,5.00
2023-03-29T08:47:52.701Z,4.90
2023-03-29T08:49:27.947Z,5.00
2023-03-29T08:51:06.161Z,4.40
2023-03-29T08:52:44.413Z,4.80
2023-03-29T08:54:59.668Z,4.37
2023-03-29T08:56:53.244Z,4.23
2023-03-29T08:58:35.076Z,4.27
2023-03-29T09:00:15.401Z,3.97
2023-03-29T09:01:53.200Z,4.50
2023-03-29T09:03:29.992Z,4.03
2023-03-29T09:05:15.994Z,3.80
2023-03-29T09:06:54.248Z,4.00
2023-03-29T09:08:30.548Z,4.03
2023-03-29T09:10:05.573Z,3.53
2023-03-29T09:12:01.676Z,3.97
2023-03-29T09:13:40.747Z,3.30
2023-03-29T09:15:19.487Z,3.67
2023-03-29T09:17:11.642Z,3.73
2023-03-29T09:18:53.151Z,3.10
2023-03-29T09:20:38.285Z,3.43
2023-03-29T09:22:22.473Z,4.77
2023-03-29T09:24:10.185Z,4.80
2023-03-29T09:25:58.726Z,4.33
2023-03-29T09:27:49.502Z,4.70
2023-03-29T09:29:58.232Z,5.30
2023-03-29T09:31:52.556Z,5.00
2023-03-29T09:33:28.473Z,4.37
2023-03-29T09:35:18.864Z,4.10
2023-03-29T09:36:55.934Z,3.53
2023-03-29T09:38:32.335Z,4.10
2023-03-29T09:40:13.072Z,4.10
2023-03-29T09:42:16.188Z,4.00
2023-03-29T09:43:51.763Z,4.37
2023-03-29T09:45:29.454Z,4.27
2023-03-29T09:47:08.562Z,4.30
2023-03-29T09:48:46.178Z,3.70
2023-03-29T09:50:31.002Z,4.37
2023-03-29T09:52:13.581Z,3.33
2023-03-29T09:53:50.798Z,4.23
2023-03-29T09:55:50.331Z,3.90
2023-03-29T09:57:47.949Z,3.87
2023-03-29T09:59:22.696Z,3.80
2023-03-29T10:00:59.822Z,3.97
2023-03-29T10:02:33.529Z,3.73
2023-03-29T10:04:08.866Z,3.70
2023-03-29T10:05:48.059Z,3.40
2023-03-29T10:07:24.283Z,3.63
2023-03-29T10:09:05.973Z,3.03
2023-03-29T10:10:44.814Z,3.50
2023-03-29T10:12:18.721Z,3.60
2023-03-29T10:13:57.424Z,3.90
2023-03-29T10:15:31.553Z,3.73
2023-03-29T10:17:07.548Z,3.57
2023-03-29T10:18:42.665Z,3.70
2023-03-29T10:20:18.488Z,3.93
2023-03-29T10:21:52.815Z,4.17
2023-03-29T10:23:30.457Z,4.00
2023-03-29T10:25:03.785Z,4.53
2023-03-29T10:26:39.640Z,4.50
2023-03-29T10:28:16.141Z,4.83
2023-03-29T10:29:51.986Z,4.43
2023-03-29T10:31:26.167Z,4.60
2023-03-29T10:33:00.722Z,5.03
2023-03-29T10:34:35.109Z,5.53
2023-03-29T10:36:09.688Z,5.47
2023-03-29T10:37:44.291Z,5.33
2023-03-29T10:39:17.505Z,5.70
2023-03-29T10:40:53.557Z,5.87
2023-03-29T10:42:27.345Z,5.83
2023-03-29T10:44:01.580Z,5.80
2023-03-29T10:45:39.068Z,5.53
2023-03-29T10:47:17.602Z,6.20
2023-03-29T10:48:53.021Z,5.80
2023-03-29T10:50:27.081Z,6.10
2023-03-29T10:52:00.177Z,5.80
2023-03-29T10:53:35.260Z,6.13
2023-03-29T10:55:14.794Z,5.77
2023-03-29T10:56:52.500Z,5.67
2023-03-29T10:58:36.274Z,5.60
2023-03-29T11:00:17.621Z,5.67
2023-03-29T11:02:19.532Z,6.10
2023-03-29T11:04:17.418Z,6.57
2023-03-29T11:05:57.346Z,5.90
2023-03-29T11:07:33.670Z,6.80
2023-03-29T11:09:15.491Z,6.50
2023-03-29T11:10:56.808Z,6.40
2023-03-29T11:12:38.870Z,5.90
2023-03-29T11:14:21.982Z,6.27
2023-03-29T11:16:06.824Z,6.60
2023-03-29T11:17:55.562Z,6.73
2023-03-29T11:19:45.657Z,5.97
2023-03-29T11:21:28.091Z,6.13
2023-03-29T11:23:09.098Z,6.20
2023-03-29T11:24:54.649Z,6.40
2023-03-29T11:26:32.384Z,6.40
2023-03-29T11:28:13.896Z,6.30
2023-03-29T11:30:00.578Z,7.10
2023-03-29T11:31:41.755Z,7.33
2023-03-29T11:33:34.097Z,7.73
2023-03-29T11:35:28.339Z,8.00
2023-03-29T11:37:09.435Z,7.53
2023-03-29T11:38:49.672Z,7.57
2023-03-29T11:40:36.159Z,8.03
2023-03-29T11:42:14.704Z,8.07
2023-03-29T11:43:50.625Z,8.63
2023-03-29T11:45:30.519Z,8.63
2023-03-29T11:47:10.024Z,10.33
2023-03-29T11:48:51.220Z,10.90
2023-03-29T11:50:29.128Z,10.40
2023-03-29T11:52:08.531Z,9.73
2023-03-29T11:53:51.792Z,9.73
2023-03-29T11:55:27.195Z,9.40
2023-03-29T11:57:05.261Z,9.17
2023-03-29T11:58:41.146Z,9.37
2023-03-29T12:00:18.211Z,9.30
2023-03-29T12:01:56.246Z,9.10
2023-03-29T12:03:39.318Z,10.07
2023-03-29T12:05:21.567Z,9.40
2023-03-29T12:07:02.442Z,9.77
2023-03-29T12:08:39.289Z,10.40
2023-03-29T12:10:20.600Z,10.70
2023-03-29T12:12:00.716Z,10.10
2023-03-29T12:13:37.867Z,10.73
2023-03-29T12:15:20.177Z,10.13
2023-03-29T12:17:01.350Z,9.93
2023-03-29T12:18:40.970Z,10.33
2023-03-29T12:20:23.356Z,10.43
2023-03-29T12:21:59.042Z,10.17
2023-03-29T12:23:33.726Z,10.07
2023-03-29T12:25:10.363Z,9.57
2023-03-29T12:27:03.988Z,9.80
2023-03-29T12:29:05.643Z,9.77
2023-03-29T12:30:52.686Z,10.00
2023-03-29T12:32:45.951Z,11.00
2023-03-29T12:35:06.016Z,11.00
2023-03-29T12:37:16.493Z,11.13
2023-03-29T12:38:53.842Z,9.97
2023-03-29T12:40:47.995Z,11.33
2023-03-29T12:42:46.956Z,10.50
2023-03-29T12:44:38.718Z,12.00
2023-03-29T12:46:34.456Z,11.30
2023-03-29T12:48:09.032Z,11.57
2023-03-29T12:49:42.142Z,12.00
2023-03-29T12:51:17.170Z,11.47
2023-03-29T12:52:51.809Z,11.47
2023-03-29T12:54:29.384Z,11.93
2023-03-29T12:56:12.559Z,11.67
2023-03-29T12:58:01.226Z,11.87
2023-03-29T12:59:39.577Z,11.50
2023-03-29T13:01:26.609Z,11.13
2023-03-29T13:03:04.896Z,10.77
2023-03-29T13:04:49.335Z,10.57
2023-03-29T13:06:32.330Z,10.90
2023-03-29T13:08:23.184Z,11.30
2023-03-29T13:09:58.169Z,11.63
2023-03-29T13:11:36.088Z,11.60
2023-03-29T13:13:22.206Z,11.97
2023-03-29T13:14:57.277Z,11.90
2023-03-29T13:16:32.129Z,11.43
2023-03-29T13:18:16.704Z,11.57
2023-03-29T13:20:03.274Z,11.63
2023-03-29T13:21:48.652Z,11.43
2023-03-29T13:23:38.177Z,11.57
2023-03-29T13:25:25.461Z,12.23
2023-03-29T13:27:04.986Z,12.20
2023-03-29T13:28:50.636Z,11.60
2023-03-29T13:30:31.911Z,12.53
2023-03-29T13:32:18.519Z,13.40
2023-03-29T13:34:02.015Z,13.43
2023-03-29T13:35:46.239Z,12.53
2023-03-29T13:37:36.632Z,12.20
2023-03-29T13:39:20.357Z,13.43
2023-03-29T13:41:05.379Z,12.60
2023-03-29T13:42:42.214Z,13.50
2023-03-29T13:44:29.727Z,13.10
2023-03-29T13:46:25.674Z,13.77
2023-03-29T13:48:06.774Z,14.07
2023-03-29T13:49:43.624Z,12.90
2023-03-29T13:51:29.226Z,13.27
2023-03-29T13:53:07.529Z,12.47
2023-03-29T13:54:47.206Z,11.80
2023-03-29T13:56:26.252Z,12.40
2023-03-29T13:58:05.040Z,10.53
2023-03-29T14:00:00.019Z,11.20
2023-03-29T14:01:40.306Z,10.80
2023-03-29T14:03:15.503Z,10.77
2023-03-29T14:04:51.916Z,11.20
2023-03-29T14:06:28.831Z,11.57
2023-03-29T14:08:09.882Z,10.90
2023-03-29T14:09:47.042Z,11.23
2023-03-29T14:11:24.287Z,10.80
2023-03-29T14:13:04.137Z,10.77
2023-03-29T14:14:42.624Z,11.17
2023-03-29T14:16:29.011Z,10.83
2023-03-29T14:18:02.290Z,10.83
2023-03-29T14:19:38.012Z,11.20
2023-03-29T14:21:13.444Z,11.00
2023-03-29T14:22:47.291Z,9.63
2023-03-29T14:24:23.572Z,9.80
2023-03-29T14:26:07.151Z,9.43
2023-03-29T14:27:41.700Z,7.00
2023-03-29T14:29:15.040Z,7.27
2023-03-29T14:30:49.878Z,7.07
2023-03-29T14:32:30.893Z,7.00
2023-03-29T14:34:07.163Z,6.80
2023-03-29T14:35:40.611Z,7.30
2023-03-29T14:37:17.349Z,7.03
2023-03-29T14:38:53.346Z,6.93
2023-03-29T14:40:27.665Z,7.27
2023-03-29T14:42:02.828Z,7.83
2023-03-29T14:43:35.971Z,7.10
2023-03-29T14:45:13.488Z,7.70
2023-03-29T14:46:48.046Z,7.30
2023-03-29T14:48:21.663Z,7.10
2023-03-29T14:49:56.933Z,7.40
2023-03-29T14:51:31.276Z,7.37
2023-03-29T14:53:05.472Z,7.40
2023-03-29T14:54:39.369Z,7.00
2023-03-29T14:56:15.695Z,7.80
2023-03-29T14:57:51.010Z,6.73
2023-03-29T14:59:29.839Z,7.70
2023-03-29T15:01:07.030Z,6.93
2023-03-29T15:02:49.403Z,6.73
2023-03-29T15:04:22.653Z,7.47
2023-03-29T15:05:59.974Z,6.70
2023-03-29T15:07:34.867Z,6.63
2023-03-29T15:09:09.197Z,6.90
2023-03-29T15:10:44.771Z,6.53
2023-03-29T15:12:18.418Z,7.10
2023-03-29T15:14:01.638Z,7.20
2023-03-29T15:15:38.359Z,6.60
2023-03-29T15:17:39.427Z,6.97
2023-03-29T15:19:22.885Z,7.10
2023-03-29T15:20:56.243Z,6.87
2023-03-29T15:22:35.580Z,6.53
2023-03-29T15:24:22.099Z,6.17
2023-03-29T15:25:58.380Z,7.37
2023-03-29T15:27:42.735Z,7.37
2023-03-29T15:29:23.496Z,7.07
2023-03-29T15:32:38.788Z,7.33
2023-03-29T15:34:13.558Z,7.40
2023-03-29T15:35:51.294Z,8.97
2023-03-29T15:37:24.652Z,11.27
2023-03-29T15:38:58.021Z,11.60
2023-03-29T15:40:31.417Z,11.30
2023-03-29T15:42:04.609Z,11.63
2023-03-29T15:43:37.954Z,11.37
2023-03-29T15:45:16.823Z,11.37
2023-03-29T15:46:49.950Z,10.63
2023-03-29T15:48:25.662Z,11.47
2023-03-29T15:49:58.826Z,11.30
2023-03-29T15:51:32.018Z,10.57
2023-03-29T15:53:14.765Z,10.53
2023-03-29T15:54:48.877Z,10.40
2023-03-29T15:56:23.389Z,10.60
2023-03-29T15:57:59.159Z,11.40
2023-03-29T15:59:32.556Z,11.50
2023-03-29T16:01:15.969Z,11.80
2023-03-29T16:02:49.490Z,10.77
2023-03-29T16:04:23.695Z,10.97
2023-03-29T16:05:57.389Z,10.90
2023-03-29T16:07:30.983Z,10.80
2023-03-29T16:09:05.186Z,11.23
2023-03-29T16:10:38.305Z,10.60
2023-03-29T16:12:11.740Z,10.77
2023-03-29T16:13:44.842Z,10.47
2023-03-29T16:15:21.344Z,10.70
2023-03-29T16:16:58.877Z,11.10
2023-03-29T16:18:32.105Z,10.30
2023-03-29T16:20:07.246Z,9.60
2023-03-29T16:21:40.647Z,10.03
2023-03-29T16:23:13.761Z,10.40
2023-03-29T16:24:46.879Z,11.93
2023-03-29T16:26:20.076Z,11.80
2023-03-29T16:27:53.527Z,13.03
2023-03-29T16:29:26.707Z,13.33
2023-03-29T16:30:59.861Z,13.23
2023-03-29T16:32:34.406Z,13.50
2023-03-29T16:34:07.616Z,13.63
2023-03-29T16:35:41.423Z,13.87
2023-03-29T16:37:14.509Z,13.10
2023-03-29T16:38:47.697Z,13.37
2023-03-29T16:40:21.811Z,13.13
2023-03-29T16:41:55.014Z,13.27
2023-03-29T16:43:28.246Z,13.17
2023-03-29T16:45:02.217Z,13.37
2023-03-29T16:46:35.813Z,13.97
2023-03-29T16:48:13.763Z,13.83
2023-03-29T16:49:48.573Z,13.20
2023-03-29T16:51:21.770Z,14.40
2023-03-29T16:52:54.851Z,14.57
2023-03-29T16:54:29.664Z,13.60
2023-03-29T16:56:03.063Z,14.90
2023-03-29T16:57:36.852Z,15.30
2023-03-29T16:59:10.521Z,14.13
2023-03-29T17:00:46.408Z,14.27
2023-03-29T17:02:21.239Z,14.53
2023-03-29T17:03:55.923Z,14.97
2023-03-29T17:05:29.451Z,14.20
2023-03-29T17:07:03.701Z,14.40
2023-03-29T17:08:37.028Z,13.87
2023-03-29T17:10:11.587Z,14.60
2023-03-29T17:11:44.735Z,13.93
2023-03-29T17:13:17.888Z,14.50
2023-03-29T17:14:51.138Z,13.53
2023-03-29T17:16:24.553Z,13.00
2023-03-29T17:17:57.729Z,13.47
2023-03-29T17:19:32.173Z,14.07
2023-03-29T17:21:05.893Z,14.93
2023-03-29T17:22:39.093Z,15.20
2023-03-29T17:24:12.175Z,15.43
2023-03-29T17:25:45.612Z,14.93
2023-03-29T17:27:19.115Z,15.10
2023-03-29T17:28:52.204Z,16.10
2023-03-29T17:30:25.370Z,15.23
2023-03-29T17:31:58.493Z,15.50
2023-03-29T17:33:31.868Z,15.70
2023-03-29T17:35:06.976Z,14.53
2023-03-29T17:36:41.193Z,15.57
2023-03-29T17:38:14.291Z,15.07
2023-03-29T17:39:47.601Z,14.93
2023-03-29T17:41:21.232Z,14.53
2023-03-29T17:42:54.358Z,15.13
2023-03-29T17:44:27.394Z,15.07
2023-03-29T17:46:00.574Z,15.60
2023-03-29T17:47:33.804Z,14.83
2023-03-29T17:49:07.273Z,14.50
2023-03-29T17:50:41.762Z,14.80
2023-03-29T17:52:14.872Z,14.80
2023-03-29T17:53:48.194Z,14.37
2023-03-29T17:55:21.324Z,14.87
2023-03-29T17:56:54.464Z,15.03
2023-03-29T17:58:27.599Z,15.13
2023-03-29T18:00:00.660Z,15.10
2023-03-29T18:01:34.218Z,15.77
2023-03-29T18:03:08.597Z,14.37
2023-03-29T18:04:41.711Z,15.57
2023-03-29T18:06:19.403Z,14.60
2023-03-29T18:07:52.448Z,14.20
2023-03-29T18:09:28.091Z,14.40
2023-03-29T18:11:09.782Z,13.87
2023-03-29T18:12:42.869Z,14.47
2023-03-29T18:14:16.134Z,15.23
2023-03-29T18:15:56.112Z,14.60
2023-03-29T18:17:29.245Z,14.20
2023-03-29T18:19:02.340Z,14.07
2023-03-29T18:20:35.462Z,13.83
2023-03-29T18:22:09.896Z,13.60
2023-03-29T18:23:47.018Z,13.77
2023-03-29T18:25:20.106Z,14.20
2023-03-29T18:26:53.245Z,13.17
2023-03-29T18:28:27.038Z,13.40
2023-03-29T18:30:00.238Z,12.97
2023-03-29T18:31:33.436Z,12.47
2023-03-29T18:33:06.625Z,13.27
2023-03-29T18:34:40.078Z,13.23
2023-03-29T18:36:13.809Z,13.33
2023-03-29T18:37:48.480Z,12.80
2023-03-29T18:39:21.550Z,13.07
2023-03-29T18:40:54.614Z,13.40
2023-03-29T18:42:27.714Z,12.13
2023-03-29T18:44:01.101Z,13.13
2023-03-29T18:45:34.321Z,12.23
2023-03-29T18:47:07.408Z,12.20
2023-03-29T18:48:41.107Z,12.17
2023-03-29T18:50:14.293Z,12.40
2023-03-29T18:51:47.666Z,13.30
2023-03-29T18:53:22.187Z,13.50
2023-03-29T18:54:55.313Z,12.83
2023-03-29T18:56:28.838Z,12.50
2023-03-29T18:58:01.881Z,12.70
2023-03-29T18:59:36.019Z,13.13
2023-03-29T19:01:10.767Z,14.00
2023-03-29T19:02:44.003Z,13.60
2023-03-29T19:04:17.125Z,12.90
2023-03-29T19:05:55.253Z,13.50
2023-03-29T19:07:28.321Z,12.80
2023-03-29T19:09:05.169Z,12.30
2023-03-29T19:10:38.940Z,13.10
2023-03-29T19:12:12.016Z,13.53
2023-03-29T19:13:46.365Z,12.70
2023-03-29T19:15:19.854Z,13.23
2023-03-29T19:16:53.757Z,13.40
2023-03-29T19:18:27.488Z,13.03
2023-03-29T19:20:00.597Z,12.37
2023-03-29T19:21:33.833Z,12.13
2023-03-29T19:23:06.905Z,12.50
2023-03-29T19:24:41.525Z,12.97
2023-03-29T19:26:15.360Z,12.10
2023-03-29T19:27:48.645Z,12.17
2023-03-29T19:29:21.805Z,12.97
2023-03-29T19:30:55.420Z,12.97
2023-03-29T19:32:28.558Z,12.50
2023-03-29T19:34:01.790Z,12.40
2023-03-29T19:35:34.994Z,12.30
2023-03-29T19:37:08.089Z,12.53
2023-03-29T19:38:41.395Z,12.70
2023-03-29T19:40:16.065Z,12.20
2023-03-29T19:41:49.502Z,12.33
2023-03-29T19:43:22.582Z,12.17
2023-03-29T19:44:55.701Z,12.53
2023-03-29T19:46:29.086Z,12.37
2023-03-29T19:48:03.296Z,12.10
2023-03-29T19:49:38.257Z,12.33
2023-03-29T19:51:11.988Z,12.10
2023-03-29T19:52:45.053Z,12.30
2023-03-29T19:54:18.158Z,11.27
2023-03-29T19:55:53.205Z,11.93
2023-03-29T19:57:28.296Z,12.10
2023-03-29T19:59:01.512Z,11.90
2023-03-29T20:00:34.922Z,12.60
2023-03-29T20:02:08.453Z,11.53
2023-03-29T20:03:43.545Z,12.00
2023-03-29T20:05:17.226Z,11.43
2023-03-29T20:06:50.590Z,11.80
2023-03-29T20:08:24.739Z,12.03
2023-03-29T20:09:58.000Z,11.40
2023-03-29T20:11:32.439Z,11.63
2023-03-29T20:13:06.564Z,11.97
2023-03-29T20:14:40.310Z,11.40
2023-03-29T20:16:15.946Z,11.87
2023-03-29T20:17:51.396Z,11.60
2023-03-29T20:19:25.368Z,11.60
2023-03-29T20:20:58.451Z,11.23
2023-03-29T20:22:32.760Z,12.80
2023-03-29T20:24:08.539Z,11.83
2023-03-29T20:25:41.740Z,11.80
2023-03-29T20:27:16.685Z,11.73
2023-03-29T20:28:50.681Z,11.57
2023-03-29T20:30:24.060Z,11.97
2023-03-29T20:31:58.231Z,12.47
2023-03-29T20:33:31.551Z,11.83
2023-03-29T20:35:04.877Z,11.87
2023-03-29T20:36:38.673Z,11.90
2023-03-29T20:38:12.513Z,12.10
2023-03-29T20:39:45.612Z,11.90
2023-03-29T20:41:19.591Z,11.77
2023-03-29T20:42:54.245Z,12.50
2023-03-29T20:44:28.391Z,13.17
2023-03-29T20:46:01.752Z,12.37
2023-03-29T20:47:42.182Z,12.30
2023-03-29T20:49:16.111Z,12.67
2023-03-29T20:50:50.053Z,12.50
2023-03-29T20:52:24.544Z,11.60
2023-03-29T20:54:02.811Z,11.90
2023-03-29T20:55:39.064Z,12.70
2023-03-29T20:57:14.300Z,11.67
2023-03-29T20:58:48.786Z,11.50
2023-03-29T21:00:22.429Z,12.30
2023-03-29T21:01:55.596Z,11.93
2023-03-29T21:03:28.746Z,11.90
2023-03-29T21:05:02.329Z,11.73
2023-03-29T21:06:35.431Z,11.83
2023-03-29T21:08:08.478Z,11.90
2023-03-29T21:09:42.228Z,11.73
2023-03-29T21:11:16.307Z,11.80
2023-03-29T21:12:49.875Z,11.07
2023-03-29T21:14:26.664Z,12.10
2023-03-29T21:16:00.860Z,11.07
2023-03-29T21:17:34.027Z,11.30
2023-03-29T21:19:07.124Z,11.30
2023-03-29T21:20:40.283Z,11.30
2023-03-29T21:22:14.513Z,11.23
2023-03-29T21:23:47.551Z,11.47
2023-03-29T21:25:21.024Z,11.20
2023-03-29T21:26:54.088Z,11.63
2023-03-29T21:28:27.169Z,11.30
2023-03-29T21:30:01.933Z,10.93
2023-03-29T21:31:35.945Z,10.53